createdAt,value
2022-11-10T00:02:18.971Z,67.02
2022-11-10T00:05:04.584Z,67.09
2022-11-10T00:07:49.751Z,66.85
2022-11-10T00:10:56.953Z,67.70
2022-11-10T00:14:00.655Z,67.20
2022-11-10T00:17:01.060Z,67.81
2022-11-10T00:19:46.058Z,67.66
2022-11-10T00:22:31.371Z,68.24
2022-11-10T00:25:16.546Z,68.58
2022-11-10T00:28:01.614Z,68.87
2022-11-10T00:30:47.114Z,68.62
2022-11-10T00:33:34.622Z,68.82
2022-11-10T00:36:19.886Z,68.74
2022-11-10T00:39:05.769Z,68.65
2022-11-10T00:41:50.831Z,68.32
2022-11-10T00:44:36.060Z,68.21
2022-11-10T00:47:21.213Z,68.63
2022-11-10T00:50:06.928Z,68.12
2022-11-10T00:52:52.042Z,68.02
2022-11-10T00:55:40.820Z,67.74
2022-11-10T00:58:26.109Z,68.18
2022-11-10T01:01:12.854Z,68.25
2022-11-10T01:03:57.903Z,67.86
2022-11-10T01:06:43.139Z,68.39
2022-11-10T01:09:28.296Z,68.29
2022-11-10T01:12:14.466Z,68.40
2022-11-10T01:14:59.321Z,68.35
2022-11-10T01:17:44.605Z,68.47
2022-11-10T01:20:30.095Z,68.99
2022-11-10T01:23:15.299Z,68.90
2022-11-10T01:26:06.149Z,68.95
2022-11-10T01:28:51.736Z,69.07
2022-11-10T01:31:36.889Z,68.98
2022-11-10T01:34:22.201Z,69.10
2022-11-10T01:37:07.399Z,69.21
2022-11-10T01:39:52.772Z,69.53
2022-11-10T01:42:45.864Z,69.54
2022-11-10T01:45:48.998Z,69.51
2022-11-10T01:48:57.473Z,69.50
2022-11-10T01:51:50.236Z,69.35
2022-11-10T01:54:43.122Z,69.51
2022-11-10T01:57:28.563Z,69.36
2022-11-10T02:00:14.446Z,69.40
2022-11-10T02:03:28.026Z,70.01
2022-11-10T02:06:15.149Z,69.92
2022-11-10T02:09:00.262Z,69.89
2022-11-10T02:11:46.741Z,69.42
2022-11-10T02:14:32.292Z,69.83
2022-11-10T02:17:17.390Z,69.70
2022-11-10T02:20:06.432Z,69.62
2022-11-10T02:22:51.562Z,69.59
2022-11-10T02:25:37.614Z,70.04
2022-11-10T02:28:23.141Z,70.02
2022-11-10T02:31:09.624Z,69.70
2022-11-10T02:33:55.000Z,69.53
2022-11-10T02:36:40.177Z,69.94
2022-11-10T02:39:25.485Z,69.75
2022-11-10T02:42:10.658Z,70.03
2022-11-10T02:44:56.892Z,69.67
2022-11-10T02:47:41.827Z,69.80
2022-11-10T02:50:27.126Z,69.69
2022-11-10T02:53:12.684Z,69.55
2022-11-10T02:55:57.596Z,69.46
2022-11-10T02:58:42.707Z,69.38
2022-11-10T03:01:28.110Z,69.99
2022-11-10T03:04:13.451Z,69.87
2022-11-10T03:06:58.887Z,69.84
2022-11-10T03:09:44.265Z,70.16
2022-11-10T03:12:29.650Z,70.43
2022-11-10T03:15:14.612Z,70.15
2022-11-10T03:18:03.798Z,70.35
2022-11-10T03:20:49.814Z,70.11
2022-11-10T03:23:35.904Z,70.80
2022-11-10T03:26:22.376Z,71.01
2022-11-10T03:29:07.846Z,71.11
2022-11-10T03:31:53.161Z,71.79
2022-11-10T03:34:38.488Z,71.65
2022-11-10T03:37:23.749Z,71.76
2022-11-10T03:40:09.688Z,71.77
2022-11-10T03:42:54.967Z,72.01
2022-11-10T03:45:40.173Z,71.61
2022-11-10T03:48:25.568Z,72.23
2022-11-10T03:51:10.794Z,72.00
2022-11-10T03:53:56.037Z,71.46
2022-11-10T03:56:41.293Z,71.77
2022-11-10T03:59:26.617Z,71.66
2022-11-10T04:02:12.139Z,71.81
2022-11-10T04:05:15.984Z,71.55
2022-11-10T04:08:20.898Z,71.51
2022-11-10T04:11:06.431Z,71.84
2022-11-10T04:14:10.110Z,71.43
2022-11-10T04:16:55.683Z,71.62
2022-11-10T04:19:40.720Z,71.60
2022-11-10T04:22:44.431Z,71.88
2022-11-10T04:25:29.477Z,72.24
2022-11-10T04:28:14.882Z,71.75
2022-11-10T04:31:00.149Z,72.10
2022-11-10T04:33:46.196Z,72.28
2022-11-10T04:36:34.665Z,71.69
2022-11-10T04:39:19.749Z,71.85
2022-11-10T04:42:05.509Z,71.51
2022-11-10T04:44:50.886Z,71.56
2022-11-10T04:47:35.962Z,71.46
2022-11-10T04:50:21.129Z,71.79
2022-11-10T04:53:06.299Z,71.37
2022-11-10T04:55:52.119Z,71.89
2022-11-10T04:58:37.236Z,71.05
2022-11-10T05:01:26.326Z,71.47
2022-11-10T05:04:11.927Z,71.43
2022-11-10T05:06:57.243Z,71.59
2022-11-10T05:09:42.501Z,71.53
2022-11-10T05:12:27.823Z,71.44
2022-11-10T05:15:13.268Z,71.42
2022-11-10T05:17:59.458Z,70.88
2022-11-10T05:20:44.394Z,71.04
2022-11-10T05:23:38.548Z,71.00
2022-11-10T05:26:24.239Z,71.01
2022-11-10T05:29:09.467Z,71.03
2022-11-10T05:31:54.950Z,71.77
2022-11-10T05:34:40.384Z,71.79
2022-11-10T05:37:25.588Z,71.42
2022-11-10T05:40:11.431Z,71.46
2022-11-10T05:42:56.967Z,71.14
2022-11-10T05:45:42.824Z,71.19
2022-11-10T05:48:27.945Z,70.90
2022-11-10T05:51:13.267Z,71.19
2022-11-10T05:53:58.810Z,71.66
2022-11-10T05:56:44.130Z,71.72
2022-11-10T05:59:29.355Z,71.53
2022-11-10T06:02:14.493Z,72.00
2022-11-10T06:04:59.742Z,71.94
2022-11-10T06:07:44.980Z,72.05
2022-11-10T06:10:30.643Z,71.83
2022-11-10T06:13:15.748Z,71.66
2022-11-10T06:16:01.071Z,71.37
2022-11-10T06:18:46.241Z,71.40
2022-11-10T06:21:31.845Z,71.75
2022-11-10T06:24:16.918Z,71.42
2022-11-10T06:27:02.567Z,71.84
2022-11-10T06:29:47.389Z,72.20
2022-11-10T06:32:34.349Z,71.62
2022-11-10T06:35:20.537Z,71.49
2022-11-10T06:38:09.331Z,71.75
2022-11-10T06:40:54.085Z,71.90
2022-11-10T06:43:39.349Z,71.40
2022-11-10T06:46:24.644Z,71.73
2022-11-10T06:49:10.001Z,71.78
2022-11-10T06:51:55.590Z,71.97
2022-11-10T06:54:40.719Z,71.53
2022-11-10T06:57:26.054Z,71.72
2022-11-10T07:00:12.246Z,71.69
2022-11-10T07:03:08.620Z,71.85
2022-11-10T07:05:54.102Z,71.61
2022-11-10T07:08:39.178Z,71.57
2022-11-10T07:11:24.401Z,71.51
2022-11-10T07:14:09.975Z,71.45
2022-11-10T07:16:55.167Z,71.59
2022-11-10T07:19:40.729Z,71.10
2022-11-10T07:22:26.138Z,71.46
2022-11-10T07:25:11.616Z,70.97
2022-11-10T07:28:00.723Z,70.35
2022-11-10T07:30:45.899Z,70.54
2022-11-10T07:33:31.606Z,70.20
2022-11-10T07:36:16.902Z,69.84
2022-11-10T07:39:02.600Z,70.14
2022-11-10T07:41:52.297Z,70.35
2022-11-10T07:44:38.402Z,70.37
2022-11-10T07:47:24.333Z,70.46
2022-11-10T07:50:10.744Z,70.30
2022-11-10T07:53:04.880Z,70.40
2022-11-10T07:55:50.348Z,69.32
2022-11-10T07:58:35.702Z,69.84
2022-11-10T08:01:22.204Z,69.85
2022-11-10T08:04:07.501Z,69.39
2022-11-10T08:06:54.476Z,68.84
2022-11-10T08:09:39.943Z,69.15
2022-11-10T08:12:29.781Z,68.60
2022-11-10T08:15:15.675Z,68.86
2022-11-10T08:18:07.072Z,68.65
2022-11-10T08:20:54.767Z,68.27
2022-11-10T08:23:40.276Z,68.52
2022-11-10T08:26:26.532Z,68.48
2022-11-10T08:29:13.491Z,67.44
2022-11-10T08:31:58.835Z,67.62
2022-11-10T08:34:44.493Z,67.53
2022-11-10T08:37:29.773Z,67.76
2022-11-10T08:40:15.729Z,67.87
2022-11-10T08:43:02.752Z,67.50
2022-11-10T08:45:48.152Z,66.99
2022-11-10T08:48:34.022Z,67.23
2022-11-10T08:51:19.474Z,66.09
2022-11-10T08:54:05.128Z,66.66
2022-11-10T08:56:50.506Z,66.18
2022-11-10T08:59:35.682Z,66.70
2022-11-10T09:02:20.953Z,65.62
2022-11-10T09:05:06.924Z,65.14
2022-11-10T09:07:52.198Z,66.02
2022-11-10T09:10:40.341Z,64.99
2022-11-10T09:13:29.781Z,64.91
2022-11-10T09:16:16.300Z,65.08
2022-11-10T09:19:01.698Z,64.70
2022-11-10T09:21:47.041Z,64.46
2022-11-10T09:24:32.216Z,64.93
2022-11-10T09:27:17.517Z,64.56
2022-11-10T09:30:06.808Z,64.50
2022-11-10T09:32:56.690Z,64.37
2022-11-10T09:35:42.919Z,64.59
2022-11-10T09:38:28.404Z,64.51
2022-11-10T09:41:15.047Z,64.13
2022-11-10T09:44:09.319Z,63.97
2022-11-10T09:47:12.438Z,63.98
2022-11-10T09:50:02.205Z,63.39
2022-11-10T09:52:50.393Z,62.76
2022-11-10T09:55:59.582Z,61.48
2022-11-10T09:58:46.441Z,61.95
2022-11-10T10:01:40.384Z,61.61
2022-11-10T10:04:52.055Z,61.46
2022-11-10T10:07:45.181Z,60.88
2022-11-10T10:10:44.958Z,60.93
2022-11-10T10:13:48.389Z,60.69
2022-11-10T10:16:56.016Z,60.82
2022-11-10T10:19:46.999Z,60.45
2022-11-10T10:22:47.429Z,60.29
2022-11-10T10:25:33.171Z,59.90
2022-11-10T10:28:37.667Z,59.64
2022-11-10T10:31:28.654Z,59.23
2022-11-10T10:34:22.114Z,58.56
2022-11-10T10:37:27.324Z,58.54
2022-11-10T10:40:20.345Z,58.43
2022-11-10T10:43:05.757Z,57.66
2022-11-10T10:46:10.249Z,57.55
2022-11-10T10:49:28.649Z,57.45
2022-11-10T10:52:17.954Z,57.16
2022-11-10T10:55:08.152Z,57.03
2022-11-10T10:57:59.434Z,53.12
2022-11-10T11:00:46.952Z,44.87
2022-11-10T11:03:40.654Z,37.24
2022-11-10T11:06:28.669Z,33.44
2022-11-10T11:09:28.111Z,29.83
2022-11-10T11:12:22.076Z,26.23
2022-11-10T11:15:26.489Z,25.89
2022-11-10T11:18:15.239Z,23.94
2022-11-10T11:21:15.804Z,22.73
2022-11-10T11:24:20.212Z,22.50
2022-11-10T11:27:23.197Z,22.81
2022-11-10T11:30:12.580Z,20.95
2022-11-10T11:33:02.471Z,20.73
2022-11-10T11:36:17.414Z,21.20
2022-11-10T11:39:26.767Z,19.67
2022-11-10T11:42:14.914Z,19.08
2022-11-10T11:45:12.273Z,19.62
2022-11-10T11:48:19.797Z,25.05
2022-11-10T11:51:05.885Z,23.45
2022-11-10T11:53:57.231Z,22.45
2022-11-10T11:56:49.770Z,22.07
2022-11-10T11:59:41.023Z,23.19
2022-11-10T12:02:52.447Z,22.83
2022-11-10T12:06:16.159Z,22.56
2022-11-10T12:09:16.157Z,21.81
2022-11-10T12:12:15.061Z,20.99
2022-11-10T12:15:29.030Z,23.32
2022-11-10T12:18:38.182Z,23.89
2022-11-10T12:21:28.917Z,22.97
2022-11-10T12:25:00.246Z,25.90
2022-11-10T12:28:16.249Z,25.10
2022-11-10T12:31:06.937Z,24.82
2022-11-10T12:34:05.933Z,24.63
2022-11-10T12:36:53.069Z,25.43
2022-11-10T12:39:56.054Z,27.16
2022-11-10T12:42:43.770Z,30.52
2022-11-10T12:45:45.248Z,34.02
2022-11-10T12:48:42.394Z,36.01
2022-11-10T12:51:42.353Z,38.43
2022-11-10T12:54:28.913Z,38.98
2022-11-10T12:57:18.913Z,40.15
2022-11-10T13:00:28.103Z,41.14
2022-11-10T13:03:38.372Z,40.72
2022-11-10T13:06:29.091Z,41.83
2022-11-10T13:09:31.608Z,44.20
2022-11-10T13:12:22.687Z,42.47
2022-11-10T13:15:36.543Z,42.95
2022-11-10T13:18:32.852Z,43.10
2022-11-10T13:21:18.173Z,44.42
2022-11-10T13:24:03.487Z,44.06
2022-11-10T13:26:53.112Z,44.54
2022-11-10T13:29:47.249Z,44.15
2022-11-10T13:32:36.342Z,45.07
2022-11-10T13:35:28.054Z,44.80
2022-11-10T13:38:31.845Z,44.59
2022-11-10T13:41:16.919Z,44.77
2022-11-10T13:44:03.369Z,44.83
2022-11-10T13:47:09.821Z,45.07
2022-11-10T13:49:54.634Z,46.65
2022-11-10T13:52:39.358Z,46.66
2022-11-10T13:55:37.049Z,46.98
2022-11-10T13:58:28.758Z,47.43
2022-11-10T14:01:17.138Z,47.53
2022-11-10T14:04:07.091Z,47.20
2022-11-10T14:06:55.978Z,47.60
2022-11-10T14:09:45.453Z,47.93
2022-11-10T14:12:39.081Z,47.89
2022-11-10T14:15:38.819Z,47.62
2022-11-10T14:18:28.866Z,47.48
2022-11-10T14:21:22.230Z,47.39
2022-11-10T14:24:16.114Z,48.33
2022-11-10T14:27:08.320Z,48.82
2022-11-10T14:30:21.917Z,48.27
2022-11-10T14:33:11.448Z,48.57
2022-11-10T14:36:01.397Z,48.91
2022-11-10T14:38:47.079Z,49.38
2022-11-10T14:41:32.724Z,48.77
2022-11-10T14:44:24.346Z,49.19
2022-11-10T14:47:34.220Z,50.06
2022-11-10T14:50:19.688Z,50.44
2022-11-10T14:53:16.875Z,50.95
2022-11-10T14:56:06.044Z,51.48
2022-11-10T14:58:52.318Z,51.55
2022-11-10T15:01:40.715Z,52.10
2022-11-10T15:04:29.857Z,52.08
2022-11-10T15:07:16.670Z,52.32
2022-11-10T15:10:07.947Z,52.75
2022-11-10T15:13:17.875Z,53.17
2022-11-10T15:16:27.947Z,53.25
2022-11-10T15:19:29.689Z,54.29
2022-11-10T15:22:34.584Z,54.66
2022-11-10T15:25:22.611Z,54.60
2022-11-10T15:28:14.145Z,54.84
2022-11-10T15:31:05.450Z,54.79
2022-11-10T15:33:54.569Z,55.11
2022-11-10T15:36:40.005Z,55.12
2022-11-10T15:39:27.237Z,55.43
2022-11-10T15:42:17.497Z,55.60
2022-11-10T15:45:03.192Z,56.01
2022-11-10T15:47:48.362Z,56.09
2022-11-10T15:50:33.859Z,56.15
2022-11-10T15:53:38.783Z,56.53
2022-11-10T15:56:24.849Z,56.62
2022-11-10T15:59:10.665Z,56.08
2022-11-10T16:01:56.312Z,56.49
2022-11-10T16:04:42.432Z,56.71
2022-11-10T16:07:27.769Z,57.11
2022-11-10T16:10:13.193Z,57.21
2022-11-10T16:12:58.528Z,56.91
2022-11-10T16:15:45.321Z,56.97
2022-11-10T16:18:31.369Z,56.96
2022-11-10T16:21:19.958Z,57.17
2022-11-10T16:24:05.669Z,57.39
2022-11-10T16:26:51.319Z,57.74
2022-11-10T16:29:37.613Z,57.96
2022-11-10T16:32:22.829Z,58.21
2022-11-10T16:35:13.631Z,58.14
2022-11-10T16:37:58.647Z,58.41
2022-11-10T16:40:44.049Z,58.86
2022-11-10T16:43:31.367Z,58.79
2022-11-10T16:46:21.612Z,58.91
2022-11-10T16:49:21.228Z,59.02
2022-11-10T16:52:14.751Z,59.00
2022-11-10T16:55:00.003Z,58.85
2022-11-10T16:57:45.240Z,58.96
2022-11-10T17:00:30.603Z,59.22
2022-11-10T17:03:46.536Z,59.32
2022-11-10T17:06:33.414Z,59.67
2022-11-10T17:09:23.498Z,59.57
2022-11-10T17:12:16.737Z,60.09
2022-11-10T17:15:01.841Z,59.92
2022-11-10T17:17:50.858Z,59.63
2022-11-10T17:20:39.162Z,59.87
2022-11-10T17:23:26.485Z,59.46
2022-11-10T17:26:14.427Z,59.97
2022-11-10T17:28:59.508Z,60.46
2022-11-10T17:31:45.456Z,60.31
2022-11-10T17:34:31.276Z,60.03
2022-11-10T17:37:17.608Z,60.63
2022-11-10T17:40:15.836Z,60.52
2022-11-10T17:43:01.107Z,61.04
2022-11-10T17:45:46.393Z,60.85
2022-11-10T17:48:31.670Z,60.91
2022-11-10T17:51:24.144Z,61.24
2022-11-10T17:54:15.662Z,61.34
2022-11-10T17:57:00.584Z,61.77
2022-11-10T17:59:45.843Z,62.03
2022-11-10T18:02:31.028Z,61.57
2022-11-10T18:05:18.232Z,61.92
2022-11-10T18:08:04.179Z,62.01
2022-11-10T18:10:51.402Z,62.37
2022-11-10T18:13:37.915Z,62.35
2022-11-10T18:16:23.027Z,62.05
2022-11-10T18:19:10.212Z,62.47
2022-11-10T18:21:55.542Z,62.15
2022-11-10T18:24:42.511Z,62.68
2022-11-10T18:27:28.325Z,62.27
2022-11-10T18:30:16.999Z,62.93
2022-11-10T18:33:05.102Z,62.96
2022-11-10T18:35:50.738Z,63.02
2022-11-10T18:38:36.189Z,62.63
2022-11-10T18:41:40.021Z,63.19
2022-11-10T18:44:25.278Z,63.01
2022-11-10T18:47:14.566Z,63.04
2022-11-10T18:49:59.700Z,63.12
2022-11-10T18:52:45.572Z,63.12
2022-11-10T18:55:31.497Z,63.51
2022-11-10T18:58:17.149Z,63.07
2022-11-10T19:01:10.338Z,63.32
2022-11-10T19:03:57.485Z,63.21
2022-11-10T19:06:44.942Z,63.37
2022-11-10T19:09:30.217Z,63.80
2022-11-10T19:12:15.975Z,63.63
2022-11-10T19:15:01.475Z,63.52
2022-11-10T19:17:46.475Z,64.36
2022-11-10T19:20:31.488Z,64.57
2022-11-10T19:23:18.153Z,64.59
2022-11-10T19:26:22.557Z,64.94
2022-11-10T19:29:08.668Z,64.75
2022-11-10T19:31:53.863Z,64.51
2022-11-10T19:34:39.274Z,64.74
2022-11-10T19:37:24.726Z,65.08
2022-11-10T19:40:10.903Z,64.72
2022-11-10T19:42:55.884Z,65.52
2022-11-10T19:45:42.228Z,65.52
2022-11-10T19:48:27.616Z,65.45
2022-11-10T19:51:16.145Z,65.30
2022-11-10T19:54:02.883Z,65.66
2022-11-10T19:56:51.414Z,65.31
2022-11-10T19:59:36.483Z,65.67
2022-11-10T20:02:21.862Z,65.29
2022-11-10T20:05:13.482Z,65.89
2022-11-10T20:08:13.702Z,65.80
2022-11-10T20:11:10.845Z,65.88
2022-11-10T20:14:00.390Z,65.83
2022-11-10T20:16:46.057Z,65.72
2022-11-10T20:19:32.941Z,65.71
2022-11-10T20:22:19.445Z,65.64
2022-11-10T20:25:05.258Z,65.92
2022-11-10T20:27:50.575Z,66.00
2022-11-10T20:30:41.511Z,65.94
2022-11-10T20:33:27.338Z,65.54
2022-11-10T20:36:20.340Z,65.84
2022-11-10T20:39:06.440Z,65.61
2022-11-10T20:41:52.599Z,65.70
2022-11-10T20:44:37.896Z,65.68
2022-11-10T20:47:23.774Z,65.86
2022-11-10T20:50:14.442Z,65.77
2022-11-10T20:53:01.720Z,66.19
2022-11-10T20:55:54.260Z,66.63
2022-11-10T20:58:40.460Z,66.41
2022-11-10T21:01:25.540Z,66.01
2022-11-10T21:04:11.078Z,66.46
2022-11-10T21:15:04.043Z,66.22
2022-11-10T21:17:48.968Z,66.32
2022-11-10T21:20:35.437Z,66.37
2022-11-10T21:23:21.541Z,66.34
2022-11-10T21:26:10.644Z,66.52
2022-11-10T21:28:57.092Z,66.43
2022-11-10T21:31:42.787Z,66.19
2022-11-10T21:34:27.792Z,66.52
2022-11-10T21:37:13.378Z,66.51
2022-11-10T21:39:58.361Z,66.40
2022-11-10T21:42:43.727Z,66.60
2022-11-10T21:45:29.428Z,66.83
2022-11-10T21:48:14.688Z,66.37
2022-11-10T21:51:01.480Z,66.17
2022-11-10T21:53:47.226Z,66.34
2022-11-10T21:56:32.303Z,66.35
2022-11-10T21:59:19.180Z,66.43
2022-11-10T22:02:04.491Z,67.09
2022-11-10T22:04:49.676Z,66.57
2022-11-10T22:07:37.774Z,66.85
2022-11-10T22:10:41.611Z,66.54
2022-11-10T22:13:45.726Z,66.83
2022-11-10T22:17:09.726Z,66.55
2022-11-10T22:19:55.984Z,66.96
2022-11-10T22:22:46.222Z,66.87
2022-11-10T22:25:32.082Z,67.29
2022-11-10T22:28:19.930Z,66.85
2022-11-10T22:31:07.546Z,67.09
2022-11-10T22:33:57.395Z,67.33
2022-11-10T22:36:43.521Z,67.44
2022-11-10T22:39:59.643Z,66.81
2022-11-10T22:43:10.125Z,67.57
2022-11-10T22:45:55.621Z,67.47
2022-11-10T22:48:44.402Z,67.39
2022-11-10T22:51:40.421Z,66.80
2022-11-10T22:54:37.568Z,66.68
2022-11-10T22:57:42.326Z,66.60
2022-11-10T23:00:29.960Z,67.53
2022-11-10T23:03:17.897Z,67.46
2022-11-10T23:06:07.964Z,67.51
2022-11-10T23:08:57.130Z,67.63
2022-11-10T23:11:45.886Z,67.93
2022-11-10T23:14:37.143Z,67.96
2022-11-10T23:17:34.554Z,68.31
2022-11-10T23:20:20.368Z,68.31
2022-11-10T23:23:10.013Z,68.29
2022-11-10T23:26:17.301Z,68.83
2022-11-10T23:29:07.146Z,69.24
2022-11-10T23:31:59.012Z,68.91
2022-11-10T23:34:46.173Z,69.22
2022-11-10T23:37:34.960Z,69.04
2022-11-10T23:40:24.256Z,68.54
2022-11-10T23:43:10.535Z,68.51
2022-11-10T23:46:07.027Z,69.17
2022-11-10T23:48:54.538Z,68.95
2022-11-10T23:51:43.003Z,68.93
2022-11-10T23:54:29.188Z,69.32
2022-11-10T23:57:24.311Z,68.88
